sensor_id;sensor_type;location;lat;lon;timestamp;P1;durP1;ratioP1;P2;durP2;ratioP2
71671;SDS011;67659;45.554;11.812;2023-02-28T00:00:18;74.20;;;35.05;;
71671;SDS011;67659;45.554;11.812;2023-02-28T00:02:44;136.48;;;61.80;;
71671;SDS011;67659;45.554;11.812;2023-02-28T00:05:11;117.70;;;51.90;;
71671;SDS011;67659;45.554;11.812;2023-02-28T00:07:39;193.77;;;73.07;;
71671;SDS011;67659;45.554;11.812;2023-02-28T00:10:05;241.63;;;98.05;;
71671;SDS011;67659;45.554;11.812;2023-02-28T00:12:33;143.38;;;58.67;;
71671;SDS011;67659;45.554;11.812;2023-02-28T00:14:59;170.50;;;72.25;;
71671;SDS011;67659;45.554;11.812;2023-02-28T00:17:25;180.40;;;78.85;;
71671;SDS011;67659;45.554;11.812;2023-02-28T00:19:51;141.33;;;56.30;;
71671;SDS011;67659;45.554;11.812;2023-02-28T00:22:18;35.70;;;16.50;;
71671;SDS011;67659;45.554;11.812;2023-02-28T00:24:45;109.15;;;46.65;;
71671;SDS011;67659;45.554;11.812;2023-02-28T00:27:12;84.22;;;35.92;;
71671;SDS011;67659;45.554;11.812;2023-02-28T00:29:38;88.10;;;37.90;;
71671;SDS011;67659;45.554;11.812;2023-02-28T00:32:04;105.82;;;43.83;;
71671;SDS011;67659;45.554;11.812;2023-02-28T00:34:30;83.07;;;32.90;;
71671;SDS011;67659;45.554;11.812;2023-02-28T00:37:02;85.60;;;29.80;;
71671;SDS011;67659;45.554;11.812;2023-02-28T00:39:29;115.78;;;42.08;;
71671;SDS011;67659;45.554;11.812;2023-02-28T00:41:55;85.77;;;35.07;;
71671;SDS011;67659;45.554;11.812;2023-02-28T00:44:21;74.85;;;31.92;;
71671;SDS011;67659;45.554;11.812;2023-02-28T00:46:47;80.67;;;33.23;;
71671;SDS011;67659;45.554;11.812;2023-02-28T00:49:13;51.40;;;22.60;;
71671;SDS011;67659;45.554;11.812;2023-02-28T00:51:38;55.80;;;24.20;;
71671;SDS011;67659;45.554;11.812;2023-02-28T00:54:04;63.60;;;25.97;;
71671;SDS011;67659;45.554;11.812;2023-02-28T00:56:30;16.95;;;8.57;;
71671;SDS011;67659;45.554;11.812;2023-02-28T00:58:56;27.13;;;11.95;;
71671;SDS011;67659;45.554;11.812;2023-02-28T01:01:21;16.13;;;7.47;;
71671;SDS011;67659;45.554;11.812;2023-02-28T01:03:47;12.63;;;6.68;;
71671;SDS011;67659;45.554;11.812;2023-02-28T01:06:13;28.52;;;11.93;;
71671;SDS011;67659;45.554;11.812;2023-02-28T01:08:39;22.77;;;9.83;;
71671;SDS011;67659;45.554;11.812;2023-02-28T01:11:09;18.45;;;8.10;;
71671;SDS011;67659;45.554;11.812;2023-02-28T01:13:36;31.45;;;13.15;;
71671;SDS011;67659;45.554;11.812;2023-02-28T01:16:02;23.42;;;9.57;;
71671;SDS011;67659;45.554;11.812;2023-02-28T01:18:28;14.00;;;7.23;;
71671;SDS011;67659;45.554;11.812;2023-02-28T01:20:55;15.57;;;7.70;;
71671;SDS011;67659;45.554;11.812;2023-02-28T01:23:22;13.02;;;6.70;;
71671;SDS011;67659;45.554;11.812;2023-02-28T01:25:51;13.10;;;6.78;;
71671;SDS011;67659;45.554;11.812;2023-02-28T01:28:17;12.60;;;6.63;;
71671;SDS011;67659;45.554;11.812;2023-02-28T01:30:47;13.35;;;6.70;;
71671;SDS011;67659;45.554;11.812;2023-02-28T01:33:16;16.73;;;7.75;;
71671;SDS011;67659;45.554;11.812;2023-02-28T01:35:42;17.20;;;8.10;;
71671;SDS011;67659;45.554;11.812;2023-02-28T01:38:08;18.67;;;8.73;;
71671;SDS011;67659;45.554;11.812;2023-02-28T01:40:33;18.75;;;8.73;;
71671;SDS011;67659;45.554;11.812;2023-02-28T01:42:59;14.68;;;7.28;;
71671;SDS011;67659;45.554;11.812;2023-02-28T01:45:26;16.67;;;7.90;;
71671;SDS011;67659;45.554;11.812;2023-02-28T01:47:58;14.95;;;6.78;;
71671;SDS011;67659;45.554;11.812;2023-02-28T01:50:31;20.42;;;8.95;;
71671;SDS011;67659;45.554;11.812;2023-02-28T01:53:02;18.60;;;8.48;;
71671;SDS011;67659;45.554;11.812;2023-02-28T01:55:32;26.90;;;11.50;;
71671;SDS011;67659;45.554;11.812;2023-02-28T01:57:59;14.30;;;7.18;;
71671;SDS011;67659;45.554;11.812;2023-02-28T02:00:27;12.90;;;6.18;;
71671;SDS011;67659;45.554;11.812;2023-02-28T02:03:05;14.30;;;6.65;;
71671;SDS011;67659;45.554;11.812;2023-02-28T02:05:34;18.73;;;8.60;;
71671;SDS011;67659;45.554;11.812;2023-02-28T02:08:04;16.20;;;8.73;;
71671;SDS011;67659;45.554;11.812;2023-02-28T02:10:41;16.17;;;9.05;;
71671;SDS011;67659;45.554;11.812;2023-02-28T02:18:54;10.27;;;4.72;;
71671;SDS011;67659;45.554;11.812;2023-02-28T02:26:47;12.05;;;5.70;;
71671;SDS011;67659;45.554;11.812;2023-02-28T02:35:22;12.60;;;5.97;;
71671;SDS011;67659;45.554;11.812;2023-02-28T02:38:04;13.18;;;5.78;;
71671;SDS011;67659;45.554;11.812;2023-02-28T02:40:37;13.55;;;5.60;;
71671;SDS011;67659;45.554;11.812;2023-02-28T02:43:15;13.57;;;5.47;;
71671;SDS011;67659;45.554;11.812;2023-02-28T02:45:49;11.75;;;5.60;;
71671;SDS011;67659;45.554;11.812;2023-02-28T02:48:25;12.27;;;5.97;;
71671;SDS011;67659;45.554;11.812;2023-02-28T02:50:55;12.75;;;6.03;;
71671;SDS011;67659;45.554;11.812;2023-02-28T02:53:30;82.75;;;42.10;;
71671;SDS011;67659;45.554;11.812;2023-02-28T02:56:00;44.00;;;19.17;;
71671;SDS011;67659;45.554;11.812;2023-02-28T02:58:31;42.38;;;17.70;;
71671;SDS011;67659;45.554;11.812;2023-02-28T03:01:00;46.17;;;23.57;;
71671;SDS011;67659;45.554;11.812;2023-02-28T03:03:29;18.58;;;9.77;;
71671;SDS011;67659;45.554;11.812;2023-02-28T03:05:59;13.65;;;8.30;;
71671;SDS011;67659;45.554;11.812;2023-02-28T03:08:27;14.38;;;8.30;;
71671;SDS011;67659;45.554;11.812;2023-02-28T03:10:58;18.45;;;11.20;;
71671;SDS011;67659;45.554;11.812;2023-02-28T03:19:06;20.27;;;10.73;;
71671;SDS011;67659;45.554;11.812;2023-02-28T03:21:58;24.45;;;15.05;;
71671;SDS011;67659;45.554;11.812;2023-02-28T03:24:45;50.67;;;28.10;;
71671;SDS011;67659;45.554;11.812;2023-02-28T03:27:21;24.47;;;14.57;;
71671;SDS011;67659;45.554;11.812;2023-02-28T03:30:19;48.80;;;25.60;;
71671;SDS011;67659;45.554;11.812;2023-02-28T03:32:53;44.63;;;22.13;;
71671;SDS011;67659;45.554;11.812;2023-02-28T03:35:31;62.58;;;31.25;;
71671;SDS011;67659;45.554;11.812;2023-02-28T03:38:14;70.95;;;34.13;;
71671;SDS011;67659;45.554;11.812;2023-02-28T03:41:21;31.60;;;17.17;;
71671;SDS011;67659;45.554;11.812;2023-02-28T03:43:50;43.70;;;22.73;;
71671;SDS011;67659;45.554;11.812;2023-02-28T03:46:22;29.52;;;15.60;;
71671;SDS011;67659;45.554;11.812;2023-02-28T03:49:04;36.67;;;19.33;;
71671;SDS011;67659;45.554;11.812;2023-02-28T03:51:39;47.60;;;26.05;;
71671;SDS011;67659;45.554;11.812;2023-02-28T03:54:09;32.77;;;17.37;;
71671;SDS011;67659;45.554;11.812;2023-02-28T03:56:43;58.38;;;26.63;;
71671;SDS011;67659;45.554;11.812;2023-02-28T03:59:34;47.17;;;21.40;;
71671;SDS011;67659;45.554;11.812;2023-02-28T04:02:04;39.63;;;19.25;;
71671;SDS011;67659;45.554;11.812;2023-02-28T04:04:30;56.80;;;24.80;;
71671;SDS011;67659;45.554;11.812;2023-02-28T04:07:04;50.27;;;22.83;;
71671;SDS011;67659;45.554;11.812;2023-02-28T04:09:32;43.40;;;18.58;;
71671;SDS011;67659;45.554;11.812;2023-02-28T04:11:58;55.20;;;22.58;;
71671;SDS011;67659;45.554;11.812;2023-02-28T04:14:24;53.05;;;23.23;;
71671;SDS011;67659;45.554;11.812;2023-02-28T04:16:50;55.47;;;23.30;;
71671;SDS011;67659;45.554;11.812;2023-02-28T04:19:16;51.17;;;21.83;;
71671;SDS011;67659;45.554;11.812;2023-02-28T04:21:45;59.65;;;25.63;;
71671;SDS011;67659;45.554;11.812;2023-02-28T04:24:14;30.83;;;14.55;;
71671;SDS011;67659;45.554;11.812;2023-02-28T04:26:42;38.00;;;17.63;;
71671;SDS011;67659;45.554;11.812;2023-02-28T04:29:11;29.63;;;15.07;;
71671;SDS011;67659;45.554;11.812;2023-02-28T04:31:38;23.17;;;11.25;;
71671;SDS011;67659;45.554;11.812;2023-02-28T04:34:04;21.23;;;11.55;;
71671;SDS011;67659;45.554;11.812;2023-02-28T04:36:30;23.08;;;12.82;;
71671;SDS011;67659;45.554;11.812;2023-02-28T04:38:56;16.27;;;7.63;;
71671;SDS011;67659;45.554;11.812;2023-02-28T04:41:22;16.83;;;8.48;;
71671;SDS011;67659;45.554;11.812;2023-02-28T04:43:48;22.33;;;11.07;;
71671;SDS011;67659;45.554;11.812;2023-02-28T04:46:14;19.45;;;9.80;;
71671;SDS011;67659;45.554;11.812;2023-02-28T04:48:40;16.17;;;7.30;;
71671;SDS011;67659;45.554;11.812;2023-02-28T04:51:08;13.88;;;6.53;;
71671;SDS011;67659;45.554;11.812;2023-02-28T04:53:35;15.45;;;7.30;;
71671;SDS011;67659;45.554;11.812;2023-02-28T04:56:02;14.10;;;6.53;;
71671;SDS011;67659;45.554;11.812;2023-02-28T04:58:28;15.35;;;7.63;;
71671;SDS011;67659;45.554;11.812;2023-02-28T05:00:57;15.53;;;7.70;;
71671;SDS011;67659;45.554;11.812;2023-02-28T05:03:28;14.35;;;7.63;;
71671;SDS011;67659;45.554;11.812;2023-02-28T05:05:53;13.80;;;7.15;;
71671;SDS011;67659;45.554;11.812;2023-02-28T05:08:19;16.03;;;8.20;;
71671;SDS011;67659;45.554;11.812;2023-02-28T05:10:45;14.30;;;7.18;;
71671;SDS011;67659;45.554;11.812;2023-02-28T05:13:11;14.63;;;7.30;;
71671;SDS011;67659;45.554;11.812;2023-02-28T05:15:37;10.63;;;5.70;;
71671;SDS011;67659;45.554;11.812;2023-02-28T05:18:03;12.15;;;5.75;;
71671;SDS011;67659;45.554;11.812;2023-02-28T05:20:29;12.50;;;6.10;;
71671;SDS011;67659;45.554;11.812;2023-02-28T05:22:55;12.73;;;6.27;;
71671;SDS011;67659;45.554;11.812;2023-02-28T05:25:23;12.38;;;6.25;;
71671;SDS011;67659;45.554;11.812;2023-02-28T05:27:49;13.18;;;6.45;;
71671;SDS011;67659;45.554;11.812;2023-02-28T05:30:15;12.10;;;5.82;;
71671;SDS011;67659;45.554;11.812;2023-02-28T05:32:42;13.97;;;6.30;;
71671;SDS011;67659;45.554;11.812;2023-02-28T05:35:08;13.48;;;6.38;;
71671;SDS011;67659;45.554;11.812;2023-02-28T05:37:37;13.70;;;6.70;;
71671;SDS011;67659;45.554;11.812;2023-02-28T05:40:04;12.43;;;6.28;;
71671;SDS011;67659;45.554;11.812;2023-02-28T05:42:32;11.48;;;5.88;;
71671;SDS011;67659;45.554;11.812;2023-02-28T05:44:58;15.93;;;6.53;;
71671;SDS011;67659;45.554;11.812;2023-02-28T05:47:24;12.95;;;6.05;;
71671;SDS011;67659;45.554;11.812;2023-02-28T05:49:50;15.57;;;6.35;;
71671;SDS011;67659;45.554;11.812;2023-02-28T05:52:16;13.90;;;6.77;;
71671;SDS011;67659;45.554;11.812;2023-02-28T05:54:42;15.57;;;6.88;;
71671;SDS011;67659;45.554;11.812;2023-02-28T05:57:08;15.18;;;6.88;;
71671;SDS011;67659;45.554;11.812;2023-02-28T05:59:34;14.57;;;6.90;;
71671;SDS011;67659;45.554;11.812;2023-02-28T06:01:59;13.70;;;6.72;;
71671;SDS011;67659;45.554;11.812;2023-02-28T06:04:25;16.37;;;7.43;;
71671;SDS011;67659;45.554;11.812;2023-02-28T06:06:51;18.10;;;8.35;;
71671;SDS011;67659;45.554;11.812;2023-02-28T06:09:17;17.63;;;8.00;;
71671;SDS011;67659;45.554;11.812;2023-02-28T06:11:44;16.30;;;7.63;;
71671;SDS011;67659;45.554;11.812;2023-02-28T06:14:17;17.00;;;7.80;;
71671;SDS011;67659;45.554;11.812;2023-02-28T06:16:44;18.23;;;7.97;;
71671;SDS011;67659;45.554;11.812;2023-02-28T06:19:10;16.02;;;7.15;;
71671;SDS011;67659;45.554;11.812;2023-02-28T06:21:36;14.13;;;6.93;;
71671;SDS011;67659;45.554;11.812;2023-02-28T06:24:02;15.50;;;6.90;;
71671;SDS011;67659;45.554;11.812;2023-02-28T06:26:29;14.40;;;7.45;;
71671;SDS011;67659;45.554;11.812;2023-02-28T06:28:55;15.00;;;7.05;;
71671;SDS011;67659;45.554;11.812;2023-02-28T06:31:21;17.03;;;7.20;;
71671;SDS011;67659;45.554;11.812;2023-02-28T06:33:48;17.02;;;7.78;;
71671;SDS011;67659;45.554;11.812;2023-02-28T06:36:16;17.00;;;7.53;;
71671;SDS011;67659;45.554;11.812;2023-02-28T06:38:42;16.50;;;7.63;;
71671;SDS011;67659;45.554;11.812;2023-02-28T06:41:09;18.55;;;8.07;;
71671;SDS011;67659;45.554;11.812;2023-02-28T06:43:37;16.10;;;7.90;;
71671;SDS011;67659;45.554;11.812;2023-02-28T06:46:06;14.57;;;7.95;;
71671;SDS011;67659;45.554;11.812;2023-02-28T06:48:34;15.95;;;7.85;;
71671;SDS011;67659;45.554;11.812;2023-02-28T06:53:32;16.73;;;8.45;;
71671;SDS011;67659;45.554;11.812;2023-02-28T06:55:58;18.57;;;7.83;;
71671;SDS011;67659;45.554;11.812;2023-02-28T06:58:24;15.98;;;8.20;;
71671;SDS011;67659;45.554;11.812;2023-02-28T07:00:51;17.38;;;7.80;;
71671;SDS011;67659;45.554;11.812;2023-02-28T07:03:17;17.17;;;8.43;;
71671;SDS011;67659;45.554;11.812;2023-02-28T07:05:43;17.03;;;8.17;;
71671;SDS011;67659;45.554;11.812;2023-02-28T07:08:10;15.07;;;8.25;;
71671;SDS011;67659;45.554;11.812;2023-02-28T07:10:39;15.48;;;7.70;;
71671;SDS011;67659;45.554;11.812;2023-02-28T07:13:06;17.00;;;7.93;;
71671;SDS011;67659;45.554;11.812;2023-02-28T07:15:34;15.07;;;8.20;;
71671;SDS011;67659;45.554;11.812;2023-02-28T07:18:01;13.53;;;7.50;;
71671;SDS011;67659;45.554;11.812;2023-02-28T07:20:27;17.67;;;8.05;;
71671;SDS011;67659;45.554;11.812;2023-02-28T07:22:53;15.15;;;8.38;;
71671;SDS011;67659;45.554;11.812;2023-02-28T07:25:22;13.27;;;7.40;;
71671;SDS011;67659;45.554;11.812;2023-02-28T07:27:49;14.05;;;7.78;;
71671;SDS011;67659;45.554;11.812;2023-02-28T07:30:16;14.77;;;8.20;;
71671;SDS011;67659;45.554;11.812;2023-02-28T07:32:42;15.82;;;8.07;;
71671;SDS011;67659;45.554;11.812;2023-02-28T07:35:08;14.50;;;8.20;;
71671;SDS011;67659;45.554;11.812;2023-02-28T07:37:34;14.15;;;7.78;;
71671;SDS011;67659;45.554;11.812;2023-02-28T07:40:06;13.03;;;7.80;;
71671;SDS011;67659;45.554;11.812;2023-02-28T07:42:33;15.07;;;7.47;;
71671;SDS011;67659;45.554;11.812;2023-02-28T07:45:00;13.18;;;7.82;;
71671;SDS011;67659;45.554;11.812;2023-02-28T07:47:28;13.82;;;7.57;;
71671;SDS011;67659;45.554;11.812;2023-02-28T07:49:55;12.73;;;7.35;;
71671;SDS011;67659;45.554;11.812;2023-02-28T07:52:21;14.50;;;7.37;;
71671;SDS011;67659;45.554;11.812;2023-02-28T07:54:49;11.77;;;7.25;;
71671;SDS011;67659;45.554;11.812;2023-02-28T07:57:15;12.63;;;7.47;;
71671;SDS011;67659;45.554;11.812;2023-02-28T07:59:41;12.23;;;7.57;;
71671;SDS011;67659;45.554;11.812;2023-02-28T08:02:16;13.30;;;7.40;;
71671;SDS011;67659;45.554;11.812;2023-02-28T08:04:43;13.57;;;7.78;;
71671;SDS011;67659;45.554;11.812;2023-02-28T08:07:10;13.07;;;7.50;;
71671;SDS011;67659;45.554;11.812;2023-02-28T08:09:38;14.82;;;7.55;;
71671;SDS011;67659;45.554;11.812;2023-02-28T08:12:06;11.60;;;6.95;;
71671;SDS011;67659;45.554;11.812;2023-02-28T08:14:32;12.27;;;7.10;;
71671;SDS011;67659;45.554;11.812;2023-02-28T08:16:59;13.73;;;7.50;;
71671;SDS011;67659;45.554;11.812;2023-02-28T08:19:25;15.13;;;7.13;;
71671;SDS011;67659;45.554;11.812;2023-02-28T08:21:51;12.63;;;7.30;;
71671;SDS011;67659;45.554;11.812;2023-02-28T08:24:17;15.45;;;7.63;;
71671;SDS011;67659;45.554;11.812;2023-02-28T08:26:43;13.83;;;7.33;;
71671;SDS011;67659;45.554;11.812;2023-02-28T08:29:09;15.45;;;7.72;;
71671;SDS011;67659;45.554;11.812;2023-02-28T08:31:35;13.63;;;7.38;;
71671;SDS011;67659;45.554;11.812;2023-02-28T08:34:05;13.30;;;7.80;;
71671;SDS011;67659;45.554;11.812;2023-02-28T08:36:35;14.60;;;7.90;;
71671;SDS011;67659;45.554;11.812;2023-02-28T08:39:02;15.25;;;7.57;;
71671;SDS011;67659;45.554;11.812;2023-02-28T08:41:28;13.40;;;7.55;;
71671;SDS011;67659;45.554;11.812;2023-02-28T08:43:54;12.50;;;7.50;;
71671;SDS011;67659;45.554;11.812;2023-02-28T08:46:20;12.27;;;7.20;;
71671;SDS011;67659;45.554;11.812;2023-02-28T08:48:46;11.55;;;7.25;;
71671;SDS011;67659;45.554;11.812;2023-02-28T08:51:13;13.32;;;7.63;;
71671;SDS011;67659;45.554;11.812;2023-02-28T08:53:43;11.73;;;7.15;;
71671;SDS011;67659;45.554;11.812;2023-02-28T08:56:11;13.07;;;7.37;;
71671;SDS011;67659;45.554;11.812;2023-02-28T08:58:38;11.00;;;7.20;;
71671;SDS011;67659;45.554;11.812;2023-02-28T09:01:47;12.32;;;7.85;;
71671;SDS011;67659;45.554;11.812;2023-02-28T09:03:55;11.55;;;7.57;;
71671;SDS011;67659;45.554;11.812;2023-02-28T09:06:22;11.63;;;7.25;;
71671;SDS011;67659;45.554;11.812;2023-02-28T09:08:49;11.73;;;7.50;;
71671;SDS011;67659;45.554;11.812;2023-02-28T09:11:16;10.93;;;7.15;;
71671;SDS011;67659;45.554;11.812;2023-02-28T09:13:43;11.70;;;7.60;;
71671;SDS011;67659;45.554;11.812;2023-02-28T09:16:10;12.00;;;7.35;;
71671;SDS011;67659;45.554;11.812;2023-02-28T09:18:39;12.55;;;6.70;;
71671;SDS011;67659;45.554;11.812;2023-02-28T09:21:06;11.47;;;6.90;;
71671;SDS011;67659;45.554;11.812;2023-02-28T09:23:33;11.57;;;6.90;;
71671;SDS011;67659;45.554;11.812;2023-02-28T09:26:00;12.45;;;7.38;;
71671;SDS011;67659;45.554;11.812;2023-02-28T09:28:26;11.68;;;6.95;;
71671;SDS011;67659;45.554;11.812;2023-02-28T09:30:53;10.35;;;6.45;;
71671;SDS011;67659;45.554;11.812;2023-02-28T09:33:22;15.50;;;6.83;;
71671;SDS011;67659;45.554;11.812;2023-02-28T09:35:56;13.40;;;6.35;;
71671;SDS011;67659;45.554;11.812;2023-02-28T09:38:26;10.07;;;6.22;;
71671;SDS011;67659;45.554;11.812;2023-02-28T09:40:53;11.57;;;6.18;;
71671;SDS011;67659;45.554;11.812;2023-02-28T09:43:26;10.82;;;5.93;;
71671;SDS011;67659;45.554;11.812;2023-02-28T09:46:08;12.23;;;6.03;;
71671;SDS011;67659;45.554;11.812;2023-02-28T09:48:52;11.93;;;6.05;;
71671;SDS011;67659;45.554;11.812;2023-02-28T09:54:04;10.80;;;6.65;;
71671;SDS011;67659;45.554;11.812;2023-02-28T09:56:39;10.13;;;6.40;;
71671;SDS011;67659;45.554;11.812;2023-02-28T10:07:22;9.30;;;5.90;;
71671;SDS011;67659;45.554;11.812;2023-02-28T10:09:59;11.23;;;5.70;;
71671;SDS011;67659;45.554;11.812;2023-02-28T10:12:32;10.87;;;5.63;;
71671;SDS011;67659;45.554;11.812;2023-02-28T10:14:58;9.93;;;6.20;;
71671;SDS011;67659;45.554;11.812;2023-02-28T10:17:29;10.30;;;6.25;;
71671;SDS011;67659;45.554;11.812;2023-02-28T10:20:07;13.80;;;6.45;;
71671;SDS011;67659;45.554;11.812;2023-02-28T10:22:45;10.77;;;6.32;;
71671;SDS011;67659;45.554;11.812;2023-02-28T10:25:23;12.83;;;6.40;;
71671;SDS011;67659;45.554;11.812;2023-02-28T10:27:55;12.65;;;6.22;;
71671;SDS011;67659;45.554;11.812;2023-02-28T10:30:26;9.60;;;5.53;;
71671;SDS011;67659;45.554;11.812;2023-02-28T10:32:52;11.10;;;6.25;;
71671;SDS011;67659;45.554;11.812;2023-02-28T10:35:23;9.90;;;5.80;;
71671;SDS011;67659;45.554;11.812;2023-02-28T10:37:53;10.00;;;5.67;;
71671;SDS011;67659;45.554;11.812;2023-02-28T10:43:29;9.70;;;5.38;;
71671;SDS011;67659;45.554;11.812;2023-02-28T10:45:39;9.80;;;5.63;;
71671;SDS011;67659;45.554;11.812;2023-02-28T10:50:44;12.52;;;6.38;;
71671;SDS011;67659;45.554;11.812;2023-02-28T10:56:00;11.77;;;6.78;;
71671;SDS011;67659;45.554;11.812;2023-02-28T10:58:30;10.23;;;6.60;;
71671;SDS011;67659;45.554;11.812;2023-02-28T11:06:43;9.60;;;5.80;;
71671;SDS011;67659;45.554;11.812;2023-02-28T11:09:20;9.93;;;5.80;;
71671;SDS011;67659;45.554;11.812;2023-02-28T11:11:57;9.67;;;5.97;;
71671;SDS011;67659;45.554;11.812;2023-02-28T11:14:24;8.13;;;5.55;;
71671;SDS011;67659;45.554;11.812;2023-02-28T11:16:52;9.85;;;5.63;;
71671;SDS011;67659;45.554;11.812;2023-02-28T11:19:23;9.73;;;5.78;;
71671;SDS011;67659;45.554;11.812;2023-02-28T11:21:58;9.38;;;5.93;;
71671;SDS011;67659;45.554;11.812;2023-02-28T11:26:52;9.60;;;5.70;;
71671;SDS011;67659;45.554;11.812;2023-02-28T11:32:02;10.33;;;5.80;;
71671;SDS011;67659;45.554;11.812;2023-02-28T11:34:28;10.30;;;6.00;;
71671;SDS011;67659;45.554;11.812;2023-02-28T11:36:55;9.73;;;6.20;;
71671;SDS011;67659;45.554;11.812;2023-02-28T11:39:23;10.27;;;6.50;;
71671;SDS011;67659;45.554;11.812;2023-02-28T11:56:06;10.32;;;6.40;;
71671;SDS011;67659;45.554;11.812;2023-02-28T11:58:53;11.13;;;5.63;;
71671;SDS011;67659;45.554;11.812;2023-02-28T12:01:38;9.20;;;5.75;;
71671;SDS011;67659;45.554;11.812;2023-02-28T12:06:45;9.07;;;5.75;;
71671;SDS011;67659;45.554;11.812;2023-02-28T12:09:40;10.38;;;5.72;;
71671;SDS011;67659;45.554;11.812;2023-02-28T12:12:24;10.57;;;5.83;;
71671;SDS011;67659;45.554;11.812;2023-02-28T12:18:09;11.23;;;5.95;;
71671;SDS011;67659;45.554;11.812;2023-02-28T12:20:54;9.18;;;5.53;;
71671;SDS011;67659;45.554;11.812;2023-02-28T12:29:00;12.57;;;5.97;;
71671;SDS011;67659;45.554;11.812;2023-02-28T12:31:35;9.48;;;5.70;;
71671;SDS011;67659;45.554;11.812;2023-02-28T12:34:04;8.93;;;5.40;;
71671;SDS011;67659;45.554;11.812;2023-02-28T12:36:35;8.63;;;5.03;;
71671;SDS011;67659;45.554;11.812;2023-02-28T12:39:04;10.30;;;6.07;;
71671;SDS011;67659;45.554;11.812;2023-02-28T12:41:38;13.23;;;6.30;;
71671;SDS011;67659;45.554;11.812;2023-02-28T12:44:17;15.25;;;6.93;;
71671;SDS011;67659;45.554;11.812;2023-02-28T12:47:05;9.57;;;6.20;;
71671;SDS011;67659;45.554;11.812;2023-02-28T12:53:09;10.47;;;6.60;;
71671;SDS011;67659;45.554;11.812;2023-02-28T12:58:01;10.63;;;6.35;;
71671;SDS011;67659;45.554;11.812;2023-02-28T13:03:50;12.45;;;6.85;;
71671;SDS011;67659;45.554;11.812;2023-02-28T13:09:25;9.88;;;6.50;;
71671;SDS011;67659;45.554;11.812;2023-02-28T13:11:54;11.40;;;6.40;;
71671;SDS011;67659;45.554;11.812;2023-02-28T13:14:23;9.48;;;5.68;;
71671;SDS011;67659;45.554;11.812;2023-02-28T13:19:27;8.53;;;4.97;;
71671;SDS011;67659;45.554;11.812;2023-02-28T13:21:56;11.00;;;5.85;;
71671;SDS011;67659;45.554;11.812;2023-02-28T13:29:34;10.43;;;6.32;;
71671;SDS011;67659;45.554;11.812;2023-02-28T13:34:41;10.02;;;5.50;;
71671;SDS011;67659;45.554;11.812;2023-02-28T13:40:36;12.70;;;6.50;;
71671;SDS011;67659;45.554;11.812;2023-02-28T13:43:02;11.43;;;6.00;;
71671;SDS011;67659;45.554;11.812;2023-02-28T13:45:29;11.45;;;5.65;;
71671;SDS011;67659;45.554;11.812;2023-02-28T13:50:44;9.88;;;5.60;;
71671;SDS011;67659;45.554;11.812;2023-02-28T14:04:22;10.57;;;5.72;;
71671;SDS011;67659;45.554;11.812;2023-02-28T14:06:55;11.55;;;5.65;;
71671;SDS011;67659;45.554;11.812;2023-02-28T14:09:27;9.60;;;5.20;;
71671;SDS011;67659;45.554;11.812;2023-02-28T14:11:54;9.93;;;5.22;;
71671;SDS011;67659;45.554;11.812;2023-02-28T14:17:05;10.32;;;5.13;;
71671;SDS011;67659;45.554;11.812;2023-02-28T14:19:39;10.38;;;5.15;;
71671;SDS011;67659;45.554;11.812;2023-02-28T14:22:13;11.83;;;5.57;;
71671;SDS011;67659;45.554;11.812;2023-02-28T14:27:38;9.77;;;5.38;;
71671;SDS011;67659;45.554;11.812;2023-02-28T14:38:41;10.82;;;5.45;;
71671;SDS011;67659;45.554;11.812;2023-02-28T14:41:16;10.25;;;5.25;;
71671;SDS011;67659;45.554;11.812;2023-02-28T14:43:49;9.68;;;4.90;;
71671;SDS011;67659;45.554;11.812;2023-02-28T14:46:21;10.40;;;4.82;;
71671;SDS011;67659;45.554;11.812;2023-02-28T14:48:50;10.83;;;5.13;;
71671;SDS011;67659;45.554;11.812;2023-02-28T14:51:20;11.68;;;5.70;;
71671;SDS011;67659;45.554;11.812;2023-02-28T14:53:53;9.70;;;5.57;;
71671;SDS011;67659;45.554;11.812;2023-02-28T14:56:25;10.40;;;6.15;;
71671;SDS011;67659;45.554;11.812;2023-02-28T14:59:00;10.80;;;6.45;;
71671;SDS011;67659;45.554;11.812;2023-02-28T15:01:26;9.87;;;5.97;;
71671;SDS011;67659;45.554;11.812;2023-02-28T15:04:05;11.15;;;5.90;;
71671;SDS011;67659;45.554;11.812;2023-02-28T15:06:32;10.38;;;5.18;;
71671;SDS011;67659;45.554;11.812;2023-02-28T15:09:09;9.23;;;5.10;;
71671;SDS011;67659;45.554;11.812;2023-02-28T15:11:45;10.33;;;5.20;;
71671;SDS011;67659;45.554;11.812;2023-02-28T15:14:15;9.77;;;5.65;;
71671;SDS011;67659;45.554;11.812;2023-02-28T15:16:45;10.88;;;5.18;;
71671;SDS011;67659;45.554;11.812;2023-02-28T15:19:28;8.90;;;4.82;;
71671;SDS011;67659;45.554;11.812;2023-02-28T15:22:03;10.00;;;5.28;;
71671;SDS011;67659;45.554;11.812;2023-02-28T15:24:49;10.00;;;5.70;;
71671;SDS011;67659;45.554;11.812;2023-02-28T15:27:30;9.38;;;5.20;;
71671;SDS011;67659;45.554;11.812;2023-02-28T15:30:05;12.75;;;5.57;;
71671;SDS011;67659;45.554;11.812;2023-02-28T15:32:34;12.07;;;5.93;;
71671;SDS011;67659;45.554;11.812;2023-02-28T15:35:18;12.52;;;5.70;;
71671;SDS011;67659;45.554;11.812;2023-02-28T15:38:02;11.03;;;5.33;;
71671;SDS011;67659;45.554;11.812;2023-02-28T15:40:49;11.95;;;5.85;;
71671;SDS011;67659;45.554;11.812;2023-02-28T15:43:23;16.17;;;6.15;;
71671;SDS011;67659;45.554;11.812;2023-02-28T15:48:30;13.80;;;5.63;;
71671;SDS011;67659;45.554;11.812;2023-02-28T15:53:48;14.90;;;5.72;;
71671;SDS011;67659;45.554;11.812;2023-02-28T15:58:55;16.13;;;6.28;;
71671;SDS011;67659;45.554;11.812;2023-02-28T16:01:35;13.70;;;5.97;;
71671;SDS011;67659;45.554;11.812;2023-02-28T16:04:12;15.53;;;6.20;;
71671;SDS011;67659;45.554;11.812;2023-02-28T16:09:23;12.63;;;5.70;;
71671;SDS011;67659;45.554;11.812;2023-02-28T16:11:49;13.70;;;6.03;;
71671;SDS011;67659;45.554;11.812;2023-02-28T16:14:22;19.08;;;6.30;;
71671;SDS011;67659;45.554;11.812;2023-02-28T16:16:53;14.73;;;6.47;;
71671;SDS011;67659;45.554;11.812;2023-02-28T16:19:20;16.13;;;6.25;;
71671;SDS011;67659;45.554;11.812;2023-02-28T16:21:47;13.35;;;6.13;;
71671;SDS011;67659;45.554;11.812;2023-02-28T16:24:13;15.07;;;6.30;;
71671;SDS011;67659;45.554;11.812;2023-02-28T16:26:40;14.40;;;6.85;;
71671;SDS011;67659;45.554;11.812;2023-02-28T16:29:08;16.40;;;6.50;;
71671;SDS011;67659;45.554;11.812;2023-02-28T16:31:38;12.60;;;6.10;;
71671;SDS011;67659;45.554;11.812;2023-02-28T16:34:06;18.60;;;6.53;;
71671;SDS011;67659;45.554;11.812;2023-02-28T16:36:31;13.98;;;6.50;;
71671;SDS011;67659;45.554;11.812;2023-02-28T16:38:57;13.87;;;6.17;;
71671;SDS011;67659;45.554;11.812;2023-02-28T16:41:24;14.68;;;6.53;;
71671;SDS011;67659;45.554;11.812;2023-02-28T16:43:52;17.13;;;6.47;;
71671;SDS011;67659;45.554;11.812;2023-02-28T16:46:24;14.30;;;7.03;;
71671;SDS011;67659;45.554;11.812;2023-02-28T16:48:59;13.63;;;6.30;;
71671;SDS011;67659;45.554;11.812;2023-02-28T16:51:25;15.45;;;6.82;;
71671;SDS011;67659;45.554;11.812;2023-02-28T16:53:51;16.50;;;7.00;;
71671;SDS011;67659;45.554;11.812;2023-02-28T16:56:17;18.05;;;7.05;;
71671;SDS011;67659;45.554;11.812;2023-02-28T16:58:48;15.63;;;6.83;;
71671;SDS011;67659;45.554;11.812;2023-02-28T17:01:16;17.02;;;7.40;;